Time;durP1;ratioP1;P1;durP2;ratioP2;P2;SDS_P1;SDS_P2;PMS_P1;PMS_P2;Temp;Humidity;BMP_temperature;BMP_pressure;BME280_temperature;BME280_humidity;BME280_pressure;Samples;Min_cycle;Max_cycle;Signal;HPM_P1;HPM_P2
2020/12/30 00:00:07;;;;;;;9.85;3.50;;;3.80;99.90;;;;;;5061651;28;20028;-51
2020/12/30 00:02:33;;;;;;;6.55;3.97;;;3.70;99.90;;;;;;5047600;28;20043;-52
2020/12/30 00:04:58;;;;;;;5.97;3.63;;;3.70;99.90;;;;;;5049948;28;20445;-48
2020/12/30 00:07:24;;;;;;;5.75;3.70;;;3.70;99.90;;;;;;5048013;28;20382;-52
2020/12/30 00:09:50;;;;;;;6.15;4.15;;;3.70;99.90;;;;;;5047513;28;20510;-49
2020/12/30 00:12:17;;;;;;;5.53;3.47;;;3.60;99.90;;;;;;5057327;28;20045;-49
2020/12/30 00:14:44;;;;;;;10.93;4.30;;;3.60;99.90;;;;;;5060801;28;20032;-52
2020/12/30 00:17:10;;;;;;;5.68;3.60;;;3.60;99.90;;;;;;5046416;28;20064;-50
2020/12/30 00:19:36;;;;;;;5.78;3.58;;;3.50;99.90;;;;;;5052529;28;20138;-49
2020/12/30 00:22:08;;;;;;;8.95;3.63;;;3.50;99.90;;;;;;5068133;28;20021;-49
2020/12/30 00:24:33;;;;;;;8.93;4.03;;;3.40;99.90;;;;;;5062526;28;20114;-49
2020/12/30 00:27:02;;;;;;;6.97;4.10;;;3.40;99.90;;;;;;5062869;28;20106;-49
2020/12/30 00:29:29;;;;;;;7.63;4.28;;;3.40;99.90;;;;;;5068080;28;20039;-52
2020/12/30 00:31:55;;;;;;;7.88;3.88;;;3.40;99.90;;;;;;5066121;28;20515;-52
2020/12/30 00:34:21;;;;;;;6.97;4.00;;;3.40;99.90;;;;;;5062633;28;20057;-52
2020/12/30 00:36:46;;;;;;;8.05;3.63;;;3.30;99.90;;;;;;5047467;28;20486;-48
2020/12/30 00:39:11;;;;;;;7.32;3.63;;;3.30;99.90;;;;;;5058475;28;20113;-48
2020/12/30 00:41:37;;;;;;;7.18;4.28;;;3.30;99.90;;;;;;5068660;28;20024;-48
2020/12/30 00:44:03;;;;;;;9.05;3.65;;;3.30;99.90;;;;;;5065510;28;20404;-51
2020/12/30 00:46:29;;;;;;;8.40;3.35;;;3.30;99.90;;;;;;5048899;28;20028;-49
2020/12/30 00:48:54;;;;;;;8.85;3.95;;;3.30;99.90;;;;;;5068363;28;20032;-49
2020/12/30 00:51:20;;;;;;;6.53;4.30;;;3.30;99.90;;;;;;5065146;28;20028;-50
2020/12/30 00:53:46;;;;;;;6.30;4.00;;;3.30;99.90;;;;;;5050958;28;20425;-51
2020/12/30 00:56:12;;;;;;;6.95;3.95;;;3.20;99.90;;;;;;5046735;28;20467;-52
2020/12/30 00:58:39;;;;;;;6.53;3.60;;;3.20;99.90;;;;;;5046796;28;20474;-50
2020/12/30 01:01:08;;;;;;;5.70;3.80;;;3.10;99.90;;;;;;5047188;28;20102;-47
2020/12/30 01:03:36;;;;;;;6.65;3.75;;;3.10;99.90;;;;;;5060843;28;20020;-48
2020/12/30 01:06:03;;;;;;;6.22;3.83;;;3.10;99.90;;;;;;5067461;28;20025;-47
2020/12/30 01:08:29;;;;;;;5.60;3.83;;;3.10;99.90;;;;;;5066234;28;20029;-49
2020/12/30 01:10:55;;;;;;;5.75;3.80;;;3.10;99.90;;;;;;5062153;28;20101;-47
2020/12/30 01:13:21;;;;;;;7.07;4.00;;;3.10;99.90;;;;;;5056929;28;20120;-47
2020/12/30 01:15:47;;;;;;;5.93;3.38;;;3.00;99.90;;;;;;5063336;28;20028;-49
2020/12/30 01:18:13;;;;;;;5.25;3.78;;;3.00;99.90;;;;;;5066259;28;20028;-47
2020/12/30 01:20:39;;;;;;;6.93;3.38;;;3.10;99.90;;;;;;5065998;28;20665;-51
2020/12/30 01:23:05;;;;;;;5.78;3.72;;;3.10;99.90;;;;;;5069377;28;20039;-51
2020/12/30 01:25:31;;;;;;;6.57;3.67;;;3.10;99.90;;;;;;5070910;28;20466;-51
2020/12/30 01:27:56;;;;;;;5.80;3.33;;;3.00;99.90;;;;;;5071614;28;20114;-48
2020/12/30 01:30:23;;;;;;;7.00;3.55;;;3.00;99.90;;;;;;5070698;28;20060;-51
2020/12/30 01:32:49;;;;;;;7.07;3.40;;;3.00;99.90;;;;;;5070224;28;20029;-50
2020/12/30 01:35:14;;;;;;;5.30;3.38;;;3.00;99.90;;;;;;5069329;28;20020;-50
2020/12/30 01:37:40;;;;;;;5.97;3.70;;;3.00;99.90;;;;;;5070947;28;22159;-50
2020/12/30 01:40:06;;;;;;;7.38;3.67;;;3.00;99.90;;;;;;5070830;28;20077;-47
2020/12/30 01:42:49;;;;;;;6.22;3.80;;;3.10;99.90;;;;;;5071098;28;20021;-47
2020/12/30 01:45:15;;;;;;;8.85;4.00;;;3.10;99.90;;;;;;5068479;28;20386;-51
2020/12/30 01:47:43;;;;;;;8.75;3.97;;;3.10;99.90;;;;;;5071412;28;20024;-50
2020/12/30 01:50:09;;;;;;;10.05;4.75;;;3.10;99.90;;;;;;5069593;28;20040;-50
2020/12/30 01:52:35;;;;;;;5.93;3.88;;;3.10;99.90;;;;;;5069823;28;20137;-49
2020/12/30 01:55:01;;;;;;;6.03;3.85;;;3.20;99.90;;;;;;5066236;28;20075;-48
2020/12/30 01:57:29;;;;;;;8.60;4.20;;;3.20;99.90;;;;;;5069758;28;20323;-51
2020/12/30 01:59:54;;;;;;;9.10;4.00;;;3.20;99.90;;;;;;5067993;28;20135;-48
2020/12/30 02:02:24;;;;;;;8.32;3.85;;;3.20;99.90;;;;;;5070261;28;20099;-50
2020/12/30 02:04:52;;;;;;;8.50;4.22;;;3.20;99.90;;;;;;5068963;28;20075;-50
2020/12/30 02:07:21;;;;;;;10.32;4.70;;;3.20;99.90;;;;;;5068513;28;20025;-49
2020/12/30 02:09:48;;;;;;;7.00;4.25;;;3.20;99.90;;;;;;5063108;28;20043;-50
2020/12/30 02:12:13;;;;;;;14.73;4.15;;;3.20;99.90;;;;;;5049305;28;20021;-48
2020/12/30 02:14:39;;;;;;;8.02;4.88;;;3.30;99.90;;;;;;5067763;28;20449;-49
2020/12/30 02:17:05;;;;;;;12.80;5.50;;;3.30;99.90;;;;;;5070382;28;20417;-50
2020/12/30 02:19:31;;;;;;;5.75;3.75;;;3.30;99.90;;;;;;5069793;28;20036;-50
2020/12/30 02:22:03;;;;;;;7.07;4.32;;;3.30;99.90;;;;;;5068458;28;20048;-47
2020/12/30 02:24:33;;;;;;;12.25;5.00;;;3.40;99.90;;;;;;5063643;28;20029;-50
2020/12/30 02:26:59;;;;;;;10.25;4.80;;;3.30;99.90;;;;;;5063738;28;20425;-50
2020/12/30 02:29:26;;;;;;;7.15;4.43;;;3.30;99.90;;;;;;5057657;28;20036;-48
2020/12/30 02:31:51;;;;;;;10.48;5.05;;;3.30;99.90;;;;;;5063540;28;20031;-47
2020/12/30 02:34:17;;;;;;;6.68;4.07;;;3.20;99.90;;;;;;5070139;28;20028;-48
2020/12/30 02:36:43;;;;;;;8.02;4.88;;;3.20;99.90;;;;;;5069044;28;20482;-50
2020/12/30 02:39:09;;;;;;;10.30;4.78;;;3.20;99.90;;;;;;5056787;28;20393;-47
2020/12/30 02:41:35;;;;;;;11.07;4.60;;;3.20;99.90;;;;;;5070119;28;20327;-50
2020/12/30 02:44:02;;;;;;;8.50;4.30;;;3.20;99.90;;;;;;5067728;28;20119;-49
2020/12/30 02:46:28;;;;;;;7.88;4.63;;;3.20;99.90;;;;;;5066980;28;20024;-50
2020/12/30 02:48:54;;;;;;;9.05;4.55;;;3.20;99.90;;;;;;5055297;28;20035;-47
2020/12/30 02:51:20;;;;;;;8.02;4.68;;;3.20;99.90;;;;;;5049821;28;20476;-50
2020/12/30 02:53:46;;;;;;;8.35;4.85;;;3.20;99.90;;;;;;5049238;28;20100;-49
2020/12/30 02:56:11;;;;;;;9.93;5.00;;;3.10;99.90;;;;;;5058102;28;20028;-50
2020/12/30 02:58:37;;;;;;;7.68;4.65;;;3.10;99.90;;;;;;5068016;28;20090;-49
2020/12/30 03:01:11;;;;;;;7.47;4.20;;;3.20;99.90;;;;;;5068181;28;20028;-47
2020/12/30 03:03:38;;;;;;;7.03;4.47;;;3.10;99.90;;;;;;5069344;28;20024;-48
2020/12/30 03:06:04;;;;;;;10.02;4.40;;;3.00;99.90;;;;;;5067183;28;20028;-47
2020/12/30 03:08:29;;;;;;;11.13;4.63;;;3.10;99.90;;;;;;5067288;28;20131;-47
2020/12/30 03:10:55;;;;;;;7.20;4.47;;;3.00;99.90;;;;;;5061245;28;20041;-47
2020/12/30 03:13:20;;;;;;;8.98;4.93;;;3.00;99.90;;;;;;5060833;28;20074;-46
2020/12/30 03:15:46;;;;;;;6.85;4.63;;;3.00;99.90;;;;;;5067521;28;20119;-50
2020/12/30 03:18:12;;;;;;;9.20;5.65;;;3.00;99.90;;;;;;5069211;28;20492;-49
2020/12/30 03:20:38;;;;;;;13.05;5.45;;;3.00;99.90;;;;;;5055332;28;20048;-47
2020/12/30 03:23:03;;;;;;;8.02;5.13;;;2.90;99.90;;;;;;5047926;28;20070;-47
2020/12/30 03:25:29;;;;;;;9.90;5.68;;;2.90;99.90;;;;;;5048290;28;20021;-50
2020/12/30 03:27:56;;;;;;;6.85;4.50;;;2.90;99.90;;;;;;5053545;28;20024;-51
2020/12/30 03:30:23;;;;;;;7.22;4.78;;;3.00;99.90;;;;;;5066741;28;20082;-49
2020/12/30 03:32:48;;;;;;;8.75;5.30;;;2.90;99.90;;;;;;5064817;28;20123;-50
2020/12/30 03:35:14;;;;;;;9.85;5.38;;;2.90;99.90;;;;;;5047970;28;20033;-47
2020/12/30 03:37:39;;;;;;;12.27;5.40;;;2.90;99.90;;;;;;5067962;28;20147;-49
2020/12/30 03:40:05;;;;;;;8.15;5.28;;;2.80;99.90;;;;;;5058893;28;20032;-51
2020/12/30 03:42:31;;;;;;;11.75;5.95;;;2.80;99.90;;;;;;5048814;28;20508;-50
2020/12/30 03:44:57;;;;;;;9.27;5.82;;;2.70;99.90;;;;;;5046763;28;20578;-47
2020/12/30 03:47:24;;;;;;;10.73;5.72;;;2.70;99.90;;;;;;5068294;28;20032;-51
2020/12/30 03:49:50;;;;;;;9.52;5.72;;;2.70;99.90;;;;;;5067012;28;20024;-51
2020/12/30 03:52:17;;;;;;;10.02;5.70;;;2.70;99.90;;;;;;5068221;28;20060;-50
2020/12/30 03:54:42;;;;;;;8.63;5.40;;;2.70;99.90;;;;;;5066657;28;20036;-49
2020/12/30 03:57:08;;;;;;;12.73;6.20;;;2.60;99.90;;;;;;5067500;28;20041;-51
2020/12/30 03:59:33;;;;;;;10.73;5.70;;;2.60;99.90;;;;;;5068534;28;20060;-47
2020/12/30 04:01:59;;;;;;;13.70;6.35;;;2.60;99.90;;;;;;5067698;28;20032;-52
2020/12/30 04:04:24;;;;;;;12.68;7.03;;;2.60;99.90;;;;;;5068052;28;20130;-47
2020/12/30 04:06:50;;;;;;;13.05;6.10;;;2.50;99.90;;;;;;5049596;28;20052;-51
2020/12/30 04:09:16;;;;;;;16.70;6.18;;;2.50;99.90;;;;;;5053970;28;20028;-51
2020/12/30 04:11:42;;;;;;;12.35;6.40;;;2.50;99.90;;;;;;5067016;28;20222;-48
2020/12/30 04:14:07;;;;;;;16.08;6.90;;;2.40;99.90;;;;;;5056399;28;20037;-48
2020/12/30 04:16:33;;;;;;;10.60;6.22;;;2.40;99.90;;;;;;5051089;28;20043;-49
2020/12/30 04:19:00;;;;;;;12.60;6.40;;;2.40;99.90;;;;;;5066240;28;20066;-52
2020/12/30 04:21:26;;;;;;;13.85;6.85;;;2.40;99.90;;;;;;5049696;28;20493;-52
2020/12/30 04:23:53;;;;;;;12.23;6.50;;;2.40;99.90;;;;;;5048223;28;20108;-51
2020/12/30 04:26:19;;;;;;;11.40;6.82;;;2.40;99.90;;;;;;5047846;28;20075;-48
2020/12/30 04:28:45;;;;;;;13.57;6.25;;;2.40;99.90;;;;;;5051169;28;20039;-51
2020/12/30 04:31:12;;;;;;;11.45;6.57;;;2.40;99.90;;;;;;5061077;28;20021;-49
2020/12/30 04:33:38;;;;;;;11.57;6.65;;;2.40;99.90;;;;;;5056497;28;20124;-47
2020/12/30 04:36:04;;;;;;;10.90;6.40;;;2.40;99.90;;;;;;5054121;28;20445;-49
2020/12/30 04:38:32;;;;;;;9.60;6.15;;;2.40;99.90;;;;;;5049818;28;20029;-52
2020/12/30 04:41:10;;;;;;;10.30;6.65;;;2.30;99.90;;;;;;5058516;28;20012;-52
2020/12/30 04:43:38;;;;;;;9.98;6.90;;;2.30;99.90;;;;;;5048698;28;20031;-50
2020/12/30 04:46:05;;;;;;;9.18;5.85;;;2.30;99.90;;;;;;5046417;28;20098;-52
2020/12/30 04:48:33;;;;;;;13.10;6.50;;;2.30;99.90;;;;;;5047336;28;20510;-48
2020/12/30 04:51:00;;;;;;;11.13;6.22;;;2.30;99.90;;;;;;5058470;28;20505;-48
2020/12/30 04:53:27;;;;;;;8.35;6.05;;;2.30;99.90;;;;;;5054159;28;20028;-50
2020/12/30 04:56:00;;;;;;;16.10;6.03;;;2.20;99.90;;;;;;5051619;28;20025;-49
2020/12/30 04:58:32;;;;;;;9.98;6.18;;;2.20;99.90;;;;;;5051311;28;20039;-50
2020/12/30 05:00:58;;;;;;;12.90;6.35;;;2.20;99.90;;;;;;5051727;28;20027;-48
2020/12/30 05:03:31;;;;;;;17.52;6.40;;;2.20;99.90;;;;;;5058200;28;20017;-50
2020/12/30 05:06:03;;;;;;;12.13;7.07;;;2.10;99.90;;;;;;5052250;28;20017;-50
2020/12/30 05:08:33;;;;;;;12.98;5.75;;;2.10;99.90;;;;;;5058644;28;20024;-51
2020/12/30 05:10:59;;;;;;;12.65;6.07;;;2.10;99.90;;;;;;5061477;28;20027;-51
2020/12/30 05:13:26;;;;;;;9.32;6.10;;;2.20;99.90;;;;;;5051067;28;20409;-50
2020/12/30 05:15:52;;;;;;;11.25;6.05;;;2.20;99.90;;;;;;5051068;28;20029;-51
2020/12/30 05:18:22;;;;;;;10.50;6.22;;;2.20;99.90;;;;;;5069389;28;20086;-49
2020/12/30 05:20:48;;;;;;;11.27;6.68;;;2.20;99.90;;;;;;5064182;28;20033;-49
2020/12/30 05:23:14;;;;;;;13.77;5.95;;;2.20;99.90;;;;;;5070753;28;20032;-50
2020/12/30 05:25:42;;;;;;;10.02;6.32;;;2.20;99.90;;;;;;5061172;28;20116;-50
2020/12/30 05:28:10;;;;;;;10.65;5.90;;;2.20;99.90;;;;;;5055443;28;20117;-51
2020/12/30 05:30:39;;;;;;;9.30;6.10;;;2.10;99.90;;;;;;5071287;28;20035;-47
2020/12/30 05:33:08;;;;;;;9.18;5.72;;;2.10;99.90;;;;;;5063603;28;20074;-51
2020/12/30 05:35:34;;;;;;;8.13;5.88;;;2.10;99.90;;;;;;5062440;28;20040;-48
2020/12/30 05:38:00;;;;;;;10.90;5.63;;;2.10;99.90;;;;;;5068828;28;20027;-48
2020/12/30 05:40:34;;;;;;;9.50;5.15;;;2.20;99.90;;;;;;5058713;28;20047;-49
2020/12/30 05:43:18;;;;;;;11.73;5.95;;;2.20;99.90;;;;;;5071247;28;20016;-49
2020/12/30 05:45:44;;;;;;;10.68;6.07;;;2.20;99.90;;;;;;5068163;28;20029;-47
2020/12/30 05:48:11;;;;;;;11.15;6.68;;;2.20;99.90;;;;;;5050317;28;20480;-50
2020/12/30 05:50:50;;;;;;;13.63;6.80;;;2.20;99.90;;;;;;5050127;28;20390;-47
2020/12/30 05:53:16;;;;;;;8.98;5.88;;;2.20;99.90;;;;;;5051034;28;20079;-47
2020/12/30 05:55:48;;;;;;;11.13;6.70;;;2.20;99.90;;;;;;5059615;28;20279;-49
2020/12/30 05:58:18;;;;;;;7.68;5.32;;;2.30;99.90;;;;;;5057300;28;20111;-49
2020/12/30 06:00:47;;;;;;;15.70;6.20;;;2.20;99.90;;;;;;5058185;28;20397;-48
2020/12/30 06:03:29;;;;;;;9.95;5.90;;;2.20;99.90;;;;;;5064622;28;20163;-46
2020/12/30 06:05:56;;;;;;;12.10;6.15;;;2.30;99.90;;;;;;5058101;28;20052;-47
2020/12/30 06:08:30;;;;;;;10.07;6.10;;;2.20;99.90;;;;;;5056233;28;20020;-47
2020/12/30 06:10:57;;;;;;;12.40;5.85;;;2.20;99.90;;;;;;5056656;28;20486;-47
2020/12/30 06:13:33;;;;;;;7.22;4.97;;;2.20;99.90;;;;;;5059255;28;20409;-48
2020/12/30 06:16:05;;;;;;;10.73;6.05;;;2.20;99.90;;;;;;5060363;28;20052;-47
2020/12/30 06:18:39;;;;;;;8.20;5.10;;;2.20;99.90;;;;;;5057754;28;20066;-49
2020/12/30 06:21:10;;;;;;;6.63;4.95;;;2.20;99.90;;;;;;5056301;28;20012;-48
2020/12/30 06:23:38;;;;;;;12.32;5.13;;;2.10;99.90;;;;;;5058259;28;20547;-48
2020/12/30 06:26:11;;;;;;;12.20;6.50;;;2.10;99.90;;;;;;5055449;28;20218;-47
2020/12/30 06:28:37;;;;;;;11.45;5.82;;;2.10;99.90;;;;;;5051842;28;20096;-49
2020/12/30 06:31:03;;;;;;;10.30;5.55;;;2.10;99.90;;;;;;5052115;28;20029;-48
2020/12/30 06:33:29;;;;;;;9.45;5.40;;;2.10;99.90;;;;;;5052211;28;20540;-48
2020/12/30 06:35:56;;;;;;;9.50;5.90;;;2.20;99.90;;;;;;5047986;28;20021;-48
2020/12/30 06:38:30;;;;;;;9.70;5.75;;;2.20;99.90;;;;;;5049697;28;20385;-47
2020/12/30 06:40:58;;;;;;;7.15;4.80;;;2.20;99.90;;;;;;5051195;28;20364;-50
2020/12/30 06:43:54;;;;;;;8.20;5.30;;;2.20;99.90;;;;;;5048289;28;20029;-47
2020/12/30 06:46:22;;;;;;;8.98;5.57;;;2.20;99.90;;;;;;5050001;28;20019;-53
2020/12/30 06:49:02;;;;;;;10.07;5.70;;;2.20;99.90;;;;;;5068572;28;20056;-47
2020/12/30 06:51:34;;;;;;;8.77;5.78;;;2.30;99.90;;;;;;5049117;28;20053;-49
2020/12/30 06:54:01;;;;;;;11.50;5.57;;;2.30;99.90;;;;;;5048168;28;20098;-42
2020/12/30 06:56:36;;;;;;;11.00;5.57;;;2.40;99.90;;;;;;5052438;28;20082;-41
2020/12/30 06:59:02;;;;;;;12.00;6.53;;;2.40;99.90;;;;;;5068476;28;20024;-41
2020/12/30 07:01:28;;;;;;;11.75;5.57;;;2.30;99.90;;;;;;5065560;28;20020;-42
2020/12/30 07:04:07;;;;;;;9.43;5.45;;;2.40;99.90;;;;;;5065489;28;20470;-43
2020/12/30 07:06:36;;;;;;;9.60;5.10;;;2.40;99.90;;;;;;5061056;28;20028;-42
2020/12/30 07:09:05;;;;;;;9.40;5.82;;;2.30;99.90;;;;;;5065296;28;20359;-42
2020/12/30 07:11:50;;;;;;;9.07;5.78;;;2.30;99.90;;;;;;5049080;28;20025;-42
2020/12/30 07:14:21;;;;;;;9.57;4.97;;;2.30;99.90;;;;;;5048632;28;20478;-42
2020/12/30 07:16:55;;;;;;;8.85;5.32;;;2.30;99.90;;;;;;5049301;28;20337;-41
2020/12/30 07:19:31;;;;;;;6.28;4.85;;;2.30;99.90;;;;;;5058015;28;20127;-41
2020/12/30 07:22:07;;;;;;;10.25;5.47;;;2.30;99.90;;;;;;5048914;28;20378;-41
2020/12/30 07:24:46;;;;;;;8.23;5.35;;;2.30;99.90;;;;;;5048779;28;20025;-41
2020/12/30 07:27:14;;;;;;;11.35;5.20;;;2.40;99.90;;;;;;5066307;28;20031;-41
2020/12/30 07:29:41;;;;;;;11.38;5.03;;;2.40;99.90;;;;;;5061565;28;20108;-41
2020/12/30 07:32:08;;;;;;;9.50;5.40;;;2.40;99.90;;;;;;5066928;28;20071;-41
2020/12/30 07:34:56;;;;;;;7.72;4.85;;;2.40;99.90;;;;;;5064884;28;20181;-42
2020/12/30 07:37:22;;;;;;;8.30;5.10;;;2.40;99.90;;;;;;5056159;28;20044;-41
2020/12/30 07:39:49;;;;;;;10.60;5.18;;;2.40;99.90;;;;;;5057047;28;20085;-41
2020/12/30 07:42:18;;;;;;;8.27;5.15;;;2.40;99.90;;;;;;5058657;28;20023;-42
2020/12/30 07:44:45;;;;;;;15.40;5.15;;;2.50;99.90;;;;;;5049793;28;20029;-42
2020/12/30 07:47:11;;;;;;;8.70;4.95;;;2.50;99.90;;;;;;5047585;28;20390;-42
2020/12/30 07:49:37;;;;;;;7.47;5.38;;;2.50;99.90;;;;;;5031073;28;20367;-42
2020/12/30 07:52:04;;;;;;;10.85;6.47;;;2.50;99.90;;;;;;5059147;28;20203;-41
2020/12/30 07:54:30;;;;;;;8.45;5.57;;;2.50;99.90;;;;;;5055093;28;20024;-41
2020/12/30 07:57:09;;;;;;;11.48;5.68;;;2.50;99.90;;;;;;5052614;28;20025;-41
2020/12/30 07:59:37;;;;;;;7.78;5.40;;;2.50;99.90;;;;;;5054881;28;20033;-41
2020/12/30 08:02:07;;;;;;;11.02;6.22;;;2.50;99.90;;;;;;5060003;28;20032;-41
2020/12/30 08:04:35;;;;;;;12.45;5.35;;;2.50;99.90;;;;;;5060163;28;20020;-41
2020/12/30 08:07:14;;;;;;;9.98;5.65;;;2.40;99.90;;;;;;5056804;28;20174;-40
2020/12/30 08:09:44;;;;;;;17.30;6.90;;;2.50;99.90;;;;;;5058793;28;20044;-41
2020/12/30 08:12:14;;;;;;;11.15;5.93;;;2.40;99.90;;;;;;5056048;28;20513;-40
2020/12/30 08:14:41;;;;;;;11.88;6.22;;;2.40;99.90;;;;;;5055728;28;20033;-41
2020/12/30 08:17:12;;;;;;;13.35;7.10;;;2.40;99.90;;;;;;5056054;28;20516;-40
2020/12/30 08:19:42;;;;;;;;;;;2.40;99.90;;;;;;5057675;28;20611;-41
2020/12/30 08:22:28;;;;;;;12.98;7.15;;;2.40;99.90;;;;;;5056036;28;19944;-41
2020/12/30 08:24:58;;;;;;;12.43;6.60;;;2.40;99.90;;;;;;5057396;28;20162;-49
2020/12/30 08:27:29;;;;;;;11.05;6.93;;;2.40;99.90;;;;;;5060545;28;20074;-50
2020/12/30 08:29:59;;;;;;;11.60;6.72;;;2.40;99.90;;;;;;5062016;28;20427;-48
2020/12/30 08:32:34;;;;;;;12.80;6.60;;;2.40;99.90;;;;;;5071168;28;20028;-51
2020/12/30 08:34:59;;;;;;;11.10;6.55;;;2.40;99.90;;;;;;5061380;28;20021;-53
2020/12/30 08:37:29;;;;;;;11.05;6.80;;;2.40;99.90;;;;;;5069753;28;20078;-51
2020/12/30 08:40:04;;;;;;;10.15;6.57;;;2.50;99.90;;;;;;5070074;28;20028;-52
2020/12/30 08:42:38;;;;;;;13.35;6.70;;;2.50;99.90;;;;;;5071806;28;20020;-49
2020/12/30 08:45:07;;;;;;;12.98;6.70;;;2.50;99.90;;;;;;5070366;28;20039;-49
2020/12/30 08:47:38;;;;;;;11.68;7.03;;;2.50;99.90;;;;;;5071966;28;20028;-51
2020/12/30 08:50:10;;;;;;;;;;;2.60;99.90;;;;;;5051696;28;20025;-50
2020/12/30 08:52:40;;;;;;;10.35;6.30;;;2.60;99.90;;;;;;5051675;28;19915;-54
2020/12/30 08:55:06;;;;;;;12.88;7.40;;;2.60;99.90;;;;;;5058937;28;20556;-51
2020/12/30 08:57:32;;;;;;;14.07;6.65;;;2.60;99.90;;;;;;5063810;28;20047;-52
2020/12/30 09:00:17;;;;;;;11.02;6.82;;;2.70;99.90;;;;;;5053748;28;20494;-49
2020/12/30 09:02:43;;;;;;;10.98;6.43;;;2.70;99.90;;;;;;5091444;28;20036;-50
2020/12/30 09:05:09;;;;;;;13.75;6.38;;;2.80;99.90;;;;;;5086281;28;20020;-51
2020/12/30 09:07:35;;;;;;;10.00;5.60;;;2.80;99.90;;;;;;5036223;28;20605;-47
2020/12/30 09:10:11;;;;;;;11.68;6.60;;;2.90;99.90;;;;;;4946022;28;20036;-49
2020/12/30 09:12:39;;;;;;;13.30;7.68;;;2.90;99.90;;;;;;4793177;29;20819;-48
2020/12/30 09:15:07;;;;;;;10.27;6.10;;;3.00;99.90;;;;;;4657944;30;20037;-48
2020/12/30 09:17:34;;;;;;;9.45;6.07;;;3.00;99.90;;;;;;4378683;31;260544;-50
2020/12/30 09:20:30;;;;;;;9.32;5.60;;;3.10;99.90;;;;;;4222949;32;20155;-52
2020/12/30 09:22:59;;;;;;;9.27;5.50;;;3.20;99.90;;;;;;4196356;33;20064;-50
2020/12/30 09:25:27;;;;;;;9.30;5.40;;;3.20;99.90;;;;;;4211439;34;20047;-50
2020/12/30 09:27:53;;;;;;;10.00;6.90;;;3.30;99.90;;;;;;4216865;33;20419;-51
2020/12/30 09:30:22;;;;;;;10.13;5.88;;;3.30;99.90;;;;;;4225318;33;20143;-48
2020/12/30 09:32:48;;;;;;;7.18;5.30;;;3.40;99.90;;;;;;4216284;33;20046;-47
2020/12/30 09:35:16;;;;;;;10.13;6.20;;;3.50;99.90;;;;;;4207589;34;20060;-51
2020/12/30 09:37:51;;;;;;;9.27;6.05;;;3.50;99.90;;;;;;4202574;34;20200;-51
2020/12/30 09:40:16;;;;;;;11.73;5.78;;;3.50;99.90;;;;;;4206205;33;20470;-51
2020/12/30 09:42:44;;;;;;;9.65;6.13;;;3.60;99.90;;;;;;4212902;34;20189;-49
2020/12/30 09:45:20;;;;;;;10.00;6.70;;;3.60;99.90;;;;;;4202681;34;20498;-51
2020/12/30 09:47:47;;;;;;;11.50;6.15;;;3.70;99.90;;;;;;4205652;33;20115;-48
2020/12/30 09:50:17;;;;;;;11.25;6.75;;;3.70;99.90;;;;;;4216477;33;20054;-48
2020/12/30 09:52:45;;;;;;;8.20;3.77;;;3.80;99.90;;;;;;4217318;33;20050;-48
2020/12/30 09:55:11;;;;;;;9.90;6.40;;;3.80;99.90;;;;;;4215627;34;20106;-48
2020/12/30 09:57:38;;;;;;;14.38;7.00;;;3.90;99.90;;;;;;4217151;33;20043;-47
2020/12/30 10:00:06;;;;;;;10.32;7.03;;;4.00;99.90;;;;;;4216865;34;20061;-48
2020/12/30 10:02:31;;;;;;;10.38;6.55;;;4.00;99.90;;;;;;4216750;34;20055;-51
2020/12/30 10:04:58;;;;;;;12.18;6.05;;;4.10;99.90;;;;;;4207635;33;20137;-48
2020/12/30 10:07:24;;;;;;;11.20;7.03;;;4.10;99.90;;;;;;4202708;34;20127;-48
2020/12/30 10:09:52;;;;;;;11.85;7.05;;;4.20;99.90;;;;;;4202805;34;20068;-52
2020/12/30 10:12:21;;;;;;;14.35;7.10;;;4.30;99.90;;;;;;4202771;34;20121;-48
2020/12/30 10:14:47;;;;;;;11.00;6.32;;;4.30;99.90;;;;;;4204428;34;20074;-48
2020/12/30 10:17:12;;;;;;;9.63;5.93;;;4.40;99.90;;;;;;4244297;32;550197;-49
2020/12/30 10:19:38;;;;;;;9.52;6.47;;;4.40;99.90;;;;;;4444102;31;20061;-50
2020/12/30 10:22:16;;;;;;;12.30;6.90;;;4.50;99.90;;;;;;4579679;31;20119;-51
2020/12/30 10:24:47;;;;;;;13.13;6.63;;;4.60;99.90;;;;;;4578508;31;20047;-50
2020/12/30 10:27:14;;;;;;;12.85;6.65;;;4.70;99.90;;;;;;4579273;31;20294;-50
2020/12/30 10:29:39;;;;;;;11.50;6.95;;;4.70;99.90;;;;;;4577785;31;20394;-47
2020/12/30 10:32:06;;;;;;;12.90;6.93;;;4.80;99.90;;;;;;4605565;31;20128;-52
2020/12/30 10:34:32;;;;;;;11.25;6.30;;;4.90;99.90;;;;;;4573856;31;20149;-47
2020/12/30 10:36:59;;;;;;;12.88;7.15;;;4.90;99.90;;;;;;4596379;31;20413;-47
2020/12/30 10:39:24;;;;;;;9.73;6.28;;;5.00;99.90;;;;;;4599696;31;20106;-49
2020/12/30 10:41:59;;;;;;;9.60;6.15;;;5.20;99.90;;;;;;4572365;31;20552;-48
2020/12/30 10:44:26;;;;;;;10.10;6.20;;;5.30;99.90;;;;;;4575053;31;20028;-48
2020/12/30 10:46:53;;;;;;;11.60;6.80;;;5.50;99.90;;;;;;4561634;31;20045;-48
2020/12/30 10:49:20;;;;;;;10.30;5.60;;;5.90;99.90;;;;;;4563884;31;21671;-52
2020/12/30 10:51:46;;;;;;;10.68;4.97;;;6.50;99.90;;;;;;4579234;31;20041;-50
2020/12/30 10:54:13;;;;;;;10.02;5.85;;;7.40;99.90;;;;;;4578716;31;20039;-48
2020/12/30 10:56:39;;;;;;;8.43;5.22;;;8.10;99.90;;;;;;4561368;31;20075;-48
2020/12/30 10:59:04;;;;;;;9.90;5.63;;;8.80;99.90;;;;;;4578542;31;20060;-48
2020/12/30 11:01:30;;;;;;;9.40;5.47;;;9.50;99.70;;;;;;4600722;31;20514;-52
2020/12/30 11:03:56;;;;;;;8.25;4.90;;;10.30;96.60;;;;;;4587616;31;20194;-50
2020/12/30 11:06:21;;;;;;;7.38;5.00;;;10.60;93.00;;;;;;4560786;31;20041;-51
2020/12/30 11:08:59;;;;;;;7.22;5.15;;;11.40;89.80;;;;;;4561328;31;20117;-49
2020/12/30 11:11:24;;;;;;;7.97;5.32;;;11.70;83.80;;;;;;4568322;31;20111;-47
2020/12/30 11:13:53;;;;;;;6.68;4.95;;;11.90;80.90;;;;;;4578510;31;20040;-51
2020/12/30 11:16:18;;;;;;;5.85;5.05;;;11.90;78.40;;;;;;4585693;30;20537;-47
2020/12/30 11:18:46;;;;;;;6.38;4.53;;;11.80;79.70;;;;;;4653749;30;20147;-48
2020/12/30 11:21:12;;;;;;;5.10;4.47;;;11.00;80.00;;;;;;4738844;29;20487;-51
2020/12/30 11:23:41;;;;;;;7.50;5.38;;;10.40;82.60;;;;;;4748790;30;20169;-51
2020/12/30 11:26:06;;;;;;;6.95;5.13;;;9.70;88.40;;;;;;4748126;30;20032;-49
2020/12/30 11:28:32;;;;;;;7.97;5.32;;;9.00;92.00;;;;;;4761657;30;20036;-48
2020/12/30 11:30:58;;;;;;;11.07;5.55;;;8.20;96.10;;;;;;4748968;30;20032;-50
2020/12/30 11:33:23;;;;;;;6.95;4.78;;;7.90;99.90;;;;;;4748621;30;20070;-48
2020/12/30 11:35:49;;;;;;;8.65;5.18;;;7.90;99.90;;;;;;4746155;30;20105;-47
2020/12/30 11:38:14;;;;;;;8.60;5.72;;;7.60;99.90;;;;;;4748403;30;20044;-51
2020/12/30 11:40:40;;;;;;;7.90;4.80;;;7.40;99.90;;;;;;4757007;30;20033;-51
2020/12/30 11:43:07;;;;;;;7.80;5.15;;;7.30;99.90;;;;;;4749998;30;20032;-51
2020/12/30 11:45:33;;;;;;;6.70;5.30;;;6.90;99.90;;;;;;4746524;30;20403;-51
2020/12/30 11:48:02;;;;;;;7.15;5.00;;;6.80;99.90;;;;;;4747401;30;20503;-48
2020/12/30 11:50:29;;;;;;;8.90;5.35;;;6.60;99.90;;;;;;4747866;30;20039;-50
2020/12/30 11:52:56;;;;;;;7.45;5.13;;;6.50;99.90;;;;;;4761818;30;20035;-51
2020/12/30 11:55:23;;;;;;;7.78;5.38;;;6.40;99.90;;;;;;4746519;30;20025;-51
2020/12/30 11:57:48;;;;;;;6.57;4.88;;;6.40;99.90;;;;;;4746112;30;20029;-51
2020/12/30 12:00:14;;;;;;;7.85;5.57;;;6.50;99.90;;;;;;4746477;30;20031;-51
2020/12/30 12:02:40;;;;;;;6.93;4.65;;;6.50;99.90;;;;;;4746312;30;20036;-49
2020/12/30 12:05:11;;;;;;;7.65;5.15;;;6.50;99.90;;;;;;4747280;30;20044;-48
2020/12/30 12:07:37;;;;;;;8.27;5.40;;;6.50;99.90;;;;;;4761777;30;20028;-49
2020/12/30 12:10:04;;;;;;;6.57;5.03;;;6.30;99.90;;;;;;4746493;30;20539;-47
2020/12/30 12:12:29;;;;;;;6.35;5.03;;;6.30;99.90;;;;;;4745791;30;20040;-49
2020/12/30 12:14:55;;;;;;;7.30;5.20;;;6.20;99.90;;;;;;4747707;30;20551;-48
2020/12/30 12:17:20;;;;;;;7.22;4.82;;;6.00;99.90;;;;;;4751370;29;20048;-49
2020/12/30 12:19:46;;;;;;;9.25;5.03;;;6.00;99.90;;;;;;4836948;29;607374;-47
2020/12/30 12:22:15;;;;;;;6.70;4.78;;;6.00;99.90;;;;;;4946126;29;20031;-51
2020/12/30 12:24:41;;;;;;;7.78;5.10;;;5.90;99.90;;;;;;4934600;29;20109;-51
2020/12/30 12:27:06;;;;;;;8.65;5.22;;;5.80;99.90;;;;;;4949308;28;20532;-51
2020/12/30 12:29:35;;;;;;;9.68;5.15;;;5.70;99.90;;;;;;4950076;28;20151;-49
2020/12/30 12:32:05;;;;;;;9.55;5.97;;;5.70;99.90;;;;;;4950673;28;20027;-49
2020/12/30 12:34:31;;;;;;;7.40;5.35;;;5.70;99.90;;;;;;4949794;28;20159;-51
2020/12/30 12:36:56;;;;;;;8.32;5.30;;;5.70;99.90;;;;;;4947933;28;20114;-48
2020/12/30 12:39:22;;;;;;;8.73;5.38;;;5.60;99.90;;;;;;4948156;29;20031;-51
2020/12/30 12:41:52;;;;;;;6.60;5.15;;;5.60;99.90;;;;;;4947231;28;20027;-52
2020/12/30 12:44:17;;;;;;;8.50;4.68;;;5.70;99.90;;;;;;4940467;28;20481;-51
2020/12/30 12:46:46;;;;;;;10.25;5.50;;;5.70;99.90;;;;;;4948989;28;20036;-48
2020/12/30 12:49:14;;;;;;;6.65;4.72;;;5.70;99.90;;;;;;4947098;28;20525;-49
2020/12/30 12:51:44;;;;;;;8.55;4.88;;;5.70;99.90;;;;;;4930623;29;20031;-52
2020/12/30 12:54:09;;;;;;;6.72;4.57;;;5.70;99.90;;;;;;4930218;29;20043;-47
2020/12/30 12:56:35;;;;;;;8.15;4.85;;;5.90;99.90;;;;;;4929274;29;20031;-51